sensor_id;sensor_type;location;lat;lon;timestamp;P1;durP1;ratioP1;P2;durP2;ratioP2
71148;SDS011;59072;42.144;25.200;2024-01-16T00:01:41;114.13;;;55.88;;
71148;SDS011;59072;42.144;25.200;2024-01-16T00:04:07;97.35;;;49.58;;
71148;SDS011;59072;42.144;25.200;2024-01-16T00:06:33;99.32;;;49.67;;
71148;SDS011;59072;42.144;25.200;2024-01-16T00:08:58;84.88;;;46.05;;
71148;SDS011;59072;42.144;25.200;2024-01-16T00:11:24;85.45;;;44.83;;
71148;SDS011;59072;42.144;25.200;2024-01-16T00:13:49;94.30;;;48.08;;
71148;SDS011;59072;42.144;25.200;2024-01-16T00:16:14;93.32;;;49.08;;
71148;SDS011;59072;42.144;25.200;2024-01-16T00:18:40;88.93;;;46.13;;
71148;SDS011;59072;42.144;25.200;2024-01-16T00:21:06;93.97;;;47.25;;
71148;SDS011;59072;42.144;25.200;2024-01-16T00:23:31;84.68;;;46.13;;
71148;SDS011;59072;42.144;25.200;2024-01-16T00:25:57;84.50;;;44.90;;
71148;SDS011;59072;42.144;25.200;2024-01-16T00:28:23;93.30;;;45.70;;
71148;SDS011;59072;42.144;25.200;2024-01-16T00:30:48;88.10;;;46.15;;
71148;SDS011;59072;42.144;25.200;2024-01-16T00:33:13;86.32;;;44.25;;
71148;SDS011;59072;42.144;25.200;2024-01-16T00:35:39;89.10;;;45.95;;
71148;SDS011;59072;42.144;25.200;2024-01-16T00:38:04;89.20;;;43.30;;
71148;SDS011;59072;42.144;25.200;2024-01-16T00:40:29;91.82;;;46.30;;
71148;SDS011;59072;42.144;25.200;2024-01-16T00:42:55;87.68;;;45.35;;
71148;SDS011;59072;42.144;25.200;2024-01-16T00:45:20;91.38;;;45.45;;
71148;SDS011;59072;42.144;25.200;2024-01-16T00:47:46;83.60;;;43.92;;
71148;SDS011;59072;42.144;25.200;2024-01-16T00:50:12;88.05;;;46.17;;
71148;SDS011;59072;42.144;25.200;2024-01-16T00:52:37;86.60;;;46.38;;
71148;SDS011;59072;42.144;25.200;2024-01-16T00:55:03;115.93;;;55.30;;
71148;SDS011;59072;42.144;25.200;2024-01-16T00:57:29;481.95;;;249.10;;
71148;SDS011;59072;42.144;25.200;2024-01-16T00:59:54;197.57;;;99.00;;
71148;SDS011;59072;42.144;25.200;2024-01-16T01:02:20;78.97;;;43.30;;
71148;SDS011;59072;42.144;25.200;2024-01-16T01:04:45;74.13;;;41.13;;
71148;SDS011;59072;42.144;25.200;2024-01-16T01:07:13;84.50;;;43.05;;
71148;SDS011;59072;42.144;25.200;2024-01-16T01:09:39;140.68;;;67.45;;
71148;SDS011;59072;42.144;25.200;2024-01-16T01:12:05;142.60;;;65.00;;
71148;SDS011;59072;42.144;25.200;2024-01-16T01:14:31;93.28;;;47.03;;
71148;SDS011;59072;42.144;25.200;2024-01-16T01:16:56;96.47;;;49.08;;
71148;SDS011;59072;42.144;25.200;2024-01-16T01:19:22;86.78;;;44.45;;
71148;SDS011;59072;42.144;25.200;2024-01-16T01:21:48;84.93;;;45.22;;
71148;SDS011;59072;42.144;25.200;2024-01-16T01:24:14;89.95;;;49.35;;
71148;SDS011;59072;42.144;25.200;2024-01-16T01:26:42;91.82;;;46.17;;
71148;SDS011;59072;42.144;25.200;2024-01-16T01:29:08;94.40;;;47.10;;
71148;SDS011;59072;42.144;25.200;2024-01-16T01:31:33;87.38;;;44.55;;
71148;SDS011;59072;42.144;25.200;2024-01-16T01:33:59;77.32;;;42.45;;
71148;SDS011;59072;42.144;25.200;2024-01-16T01:36:24;84.38;;;43.55;;
71148;SDS011;59072;42.144;25.200;2024-01-16T01:38:49;87.88;;;44.22;;
71148;SDS011;59072;42.144;25.200;2024-01-16T01:41:15;83.70;;;42.78;;
71148;SDS011;59072;42.144;25.200;2024-01-16T01:43:41;82.38;;;44.20;;
71148;SDS011;59072;42.144;25.200;2024-01-16T01:46:11;83.50;;;45.28;;
71148;SDS011;59072;42.144;25.200;2024-01-16T01:48:40;87.40;;;45.33;;
71148;SDS011;59072;42.144;25.200;2024-01-16T01:51:06;86.75;;;44.00;;
71148;SDS011;59072;42.144;25.200;2024-01-16T01:53:33;82.97;;;43.80;;
71148;SDS011;59072;42.144;25.200;2024-01-16T01:56:01;90.35;;;46.65;;
71148;SDS011;59072;42.144;25.200;2024-01-16T01:58:30;88.45;;;45.33;;
71148;SDS011;59072;42.144;25.200;2024-01-16T02:00:57;110.68;;;52.05;;
71148;SDS011;59072;42.144;25.200;2024-01-16T02:03:23;86.78;;;45.08;;
71148;SDS011;59072;42.144;25.200;2024-01-16T02:05:52;94.72;;;49.22;;
71148;SDS011;59072;42.144;25.200;2024-01-16T02:08:17;88.70;;;46.40;;
71148;SDS011;59072;42.144;25.200;2024-01-16T02:10:43;93.07;;;48.08;;
71148;SDS011;59072;42.144;25.200;2024-01-16T02:13:12;103.78;;;49.63;;
71148;SDS011;59072;42.144;25.200;2024-01-16T02:15:38;108.82;;;50.33;;
71148;SDS011;59072;42.144;25.200;2024-01-16T02:18:06;95.50;;;47.45;;
71148;SDS011;59072;42.144;25.200;2024-01-16T02:20:31;87.05;;;44.33;;
71148;SDS011;59072;42.144;25.200;2024-01-16T02:22:57;96.93;;;48.83;;
71148;SDS011;59072;42.144;25.200;2024-01-16T02:25:28;92.90;;;47.67;;
71148;SDS011;59072;42.144;25.200;2024-01-16T02:27:54;96.90;;;52.25;;
71148;SDS011;59072;42.144;25.200;2024-01-16T02:30:20;85.53;;;45.20;;
71148;SDS011;59072;42.144;25.200;2024-01-16T02:32:45;93.68;;;48.15;;
71148;SDS011;59072;42.144;25.200;2024-01-16T02:35:10;77.97;;;42.55;;
71148;SDS011;59072;42.144;25.200;2024-01-16T02:37:36;80.25;;;41.75;;
71148;SDS011;59072;42.144;25.200;2024-01-16T02:40:01;85.78;;;42.67;;
71148;SDS011;59072;42.144;25.200;2024-01-16T02:42:31;81.05;;;43.10;;
71148;SDS011;59072;42.144;25.200;2024-01-16T02:47:24;85.68;;;43.28;;
71148;SDS011;59072;42.144;25.200;2024-01-16T02:49:50;86.80;;;43.20;;
71148;SDS011;59072;42.144;25.200;2024-01-16T02:52:15;81.07;;;42.42;;
71148;SDS011;59072;42.144;25.200;2024-01-16T02:54:41;87.28;;;42.72;;
71148;SDS011;59072;42.144;25.200;2024-01-16T02:57:06;79.15;;;41.70;;
71148;SDS011;59072;42.144;25.200;2024-01-16T02:59:31;83.25;;;42.80;;
71148;SDS011;59072;42.144;25.200;2024-01-16T03:01:57;82.45;;;43.03;;
71148;SDS011;59072;42.144;25.200;2024-01-16T03:04:22;85.80;;;41.63;;
71148;SDS011;59072;42.144;25.200;2024-01-16T03:06:48;77.32;;;40.17;;
71148;SDS011;59072;42.144;25.200;2024-01-16T03:09:13;75.35;;;42.05;;
71148;SDS011;59072;42.144;25.200;2024-01-16T03:11:39;90.07;;;47.38;;
71148;SDS011;59072;42.144;25.200;2024-01-16T03:14:05;80.43;;;41.47;;
71148;SDS011;59072;42.144;25.200;2024-01-16T03:16:30;75.78;;;40.03;;
71148;SDS011;59072;42.144;25.200;2024-01-16T03:18:56;81.32;;;40.55;;
71148;SDS011;59072;42.144;25.200;2024-01-16T03:21:22;80.57;;;40.67;;
71148;SDS011;59072;42.144;25.200;2024-01-16T03:23:48;79.93;;;42.13;;
71148;SDS011;59072;42.144;25.200;2024-01-16T03:26:14;97.80;;;48.30;;
71148;SDS011;59072;42.144;25.200;2024-01-16T03:28:39;113.70;;;51.55;;
71148;SDS011;59072;42.144;25.200;2024-01-16T03:31:05;93.18;;;47.20;;
71148;SDS011;59072;42.144;25.200;2024-01-16T03:33:31;85.38;;;42.70;;
71148;SDS011;59072;42.144;25.200;2024-01-16T03:35:56;84.30;;;44.05;;
71148;SDS011;59072;42.144;25.200;2024-01-16T03:38:22;84.47;;;43.10;;
71148;SDS011;59072;42.144;25.200;2024-01-16T03:40:47;81.70;;;43.60;;
71148;SDS011;59072;42.144;25.200;2024-01-16T03:43:12;79.55;;;42.50;;
71148;SDS011;59072;42.144;25.200;2024-01-16T03:45:38;85.78;;;40.35;;
71148;SDS011;59072;42.144;25.200;2024-01-16T03:48:04;77.85;;;41.10;;
71148;SDS011;59072;42.144;25.200;2024-01-16T03:50:30;86.47;;;42.10;;
71148;SDS011;59072;42.144;25.200;2024-01-16T03:52:55;77.38;;;41.17;;
71148;SDS011;59072;42.144;25.200;2024-01-16T03:55:20;84.13;;;40.10;;
71148;SDS011;59072;42.144;25.200;2024-01-16T03:57:46;77.47;;;40.85;;
71148;SDS011;59072;42.144;25.200;2024-01-16T04:00:11;83.60;;;42.15;;
71148;SDS011;59072;42.144;25.200;2024-01-16T04:02:37;78.60;;;42.03;;
71148;SDS011;59072;42.144;25.200;2024-01-16T04:05:04;79.40;;;41.38;;
71148;SDS011;59072;42.144;25.200;2024-01-16T04:07:29;82.20;;;41.22;;
71148;SDS011;59072;42.144;25.200;2024-01-16T04:09:55;82.00;;;40.75;;
71148;SDS011;59072;42.144;25.200;2024-01-16T04:12:20;80.93;;;41.53;;
71148;SDS011;59072;42.144;25.200;2024-01-16T04:14:46;78.68;;;41.35;;
71148;SDS011;59072;42.144;25.200;2024-01-16T04:17:12;78.47;;;39.50;;
71148;SDS011;59072;42.144;25.200;2024-01-16T04:19:37;73.63;;;39.97;;
71148;SDS011;59072;42.144;25.200;2024-01-16T04:22:02;77.63;;;40.75;;
71148;SDS011;59072;42.144;25.200;2024-01-16T04:24:29;82.65;;;42.53;;
71148;SDS011;59072;42.144;25.200;2024-01-16T04:26:55;87.45;;;47.45;;
71148;SDS011;59072;42.144;25.200;2024-01-16T04:29:21;103.47;;;53.72;;
71148;SDS011;59072;42.144;25.200;2024-01-16T04:31:46;91.78;;;49.67;;
71148;SDS011;59072;42.144;25.200;2024-01-16T04:34:11;79.57;;;41.55;;
71148;SDS011;59072;42.144;25.200;2024-01-16T04:36:37;93.03;;;44.00;;
71148;SDS011;59072;42.144;25.200;2024-01-16T04:39:02;83.68;;;44.65;;
71148;SDS011;59072;42.144;25.200;2024-01-16T04:41:28;91.60;;;48.42;;
71148;SDS011;59072;42.144;25.200;2024-01-16T04:43:54;91.78;;;51.78;;
71148;SDS011;59072;42.144;25.200;2024-01-16T04:46:20;84.57;;;43.03;;
71148;SDS011;59072;42.144;25.200;2024-01-16T04:48:45;82.30;;;40.85;;
71148;SDS011;59072;42.144;25.200;2024-01-16T04:51:10;78.22;;;40.17;;
71148;SDS011;59072;42.144;25.200;2024-01-16T04:53:36;88.93;;;43.08;;
71148;SDS011;59072;42.144;25.200;2024-01-16T04:56:01;79.25;;;40.58;;
71148;SDS011;59072;42.144;25.200;2024-01-16T04:58:27;79.05;;;41.22;;
71148;SDS011;59072;42.144;25.200;2024-01-16T05:00:52;75.68;;;42.45;;
71148;SDS011;59072;42.144;25.200;2024-01-16T05:03:18;84.07;;;39.72;;
71148;SDS011;59072;42.144;25.200;2024-01-16T05:05:43;78.28;;;38.53;;
71148;SDS011;59072;42.144;25.200;2024-01-16T05:08:09;78.40;;;40.90;;
71148;SDS011;59072;42.144;25.200;2024-01-16T05:10:34;74.50;;;36.83;;
71148;SDS011;59072;42.144;25.200;2024-01-16T05:13:00;72.55;;;37.30;;
71148;SDS011;59072;42.144;25.200;2024-01-16T05:15:25;77.07;;;39.60;;
71148;SDS011;59072;42.144;25.200;2024-01-16T05:17:51;73.93;;;38.45;;
71148;SDS011;59072;42.144;25.200;2024-01-16T05:20:18;70.22;;;36.63;;
71148;SDS011;59072;42.144;25.200;2024-01-16T05:22:44;76.40;;;40.25;;
71148;SDS011;59072;42.144;25.200;2024-01-16T05:25:09;74.75;;;39.10;;
71148;SDS011;59072;42.144;25.200;2024-01-16T05:27:35;98.72;;;49.85;;
71148;SDS011;59072;42.144;25.200;2024-01-16T05:30:00;83.85;;;43.17;;
71148;SDS011;59072;42.144;25.200;2024-01-16T05:32:26;69.72;;;37.95;;
71148;SDS011;59072;42.144;25.200;2024-01-16T05:34:52;67.93;;;34.97;;
71148;SDS011;59072;42.144;25.200;2024-01-16T05:37:17;102.63;;;57.58;;
71148;SDS011;59072;42.144;25.200;2024-01-16T05:39:44;91.55;;;51.65;;
71148;SDS011;59072;42.144;25.200;2024-01-16T05:42:09;78.60;;;46.25;;
71148;SDS011;59072;42.144;25.200;2024-01-16T05:44:36;78.85;;;41.88;;
71148;SDS011;59072;42.144;25.200;2024-01-16T05:47:02;79.75;;;41.85;;
71148;SDS011;59072;42.144;25.200;2024-01-16T05:49:27;82.60;;;44.50;;
71148;SDS011;59072;42.144;25.200;2024-01-16T05:51:52;79.57;;;42.58;;
71148;SDS011;59072;42.144;25.200;2024-01-16T05:54:18;78.90;;;41.40;;
71148;SDS011;59072;42.144;25.200;2024-01-16T05:56:43;71.22;;;39.70;;
71148;SDS011;59072;42.144;25.200;2024-01-16T05:59:08;61.22;;;34.13;;
71148;SDS011;59072;42.144;25.200;2024-01-16T06:01:34;72.70;;;35.47;;
71148;SDS011;59072;42.144;25.200;2024-01-16T06:04:00;60.95;;;33.20;;
71148;SDS011;59072;42.144;25.200;2024-01-16T06:06:25;64.75;;;33.17;;
71148;SDS011;59072;42.144;25.200;2024-01-16T06:08:51;66.18;;;33.25;;
71148;SDS011;59072;42.144;25.200;2024-01-16T06:11:17;58.30;;;31.85;;
71148;SDS011;59072;42.144;25.200;2024-01-16T06:13:44;58.13;;;33.05;;
71148;SDS011;59072;42.144;25.200;2024-01-16T06:16:10;58.35;;;31.35;;
71148;SDS011;59072;42.144;25.200;2024-01-16T06:18:35;60.72;;;32.95;;
71148;SDS011;59072;42.144;25.200;2024-01-16T06:21:01;73.78;;;40.75;;
71148;SDS011;59072;42.144;25.200;2024-01-16T06:23:28;136.05;;;55.53;;
71148;SDS011;59072;42.144;25.200;2024-01-16T06:25:54;190.93;;;75.32;;
71148;SDS011;59072;42.144;25.200;2024-01-16T06:28:19;102.38;;;47.50;;
71148;SDS011;59072;42.144;25.200;2024-01-16T06:30:45;74.18;;;37.58;;
71148;SDS011;59072;42.144;25.200;2024-01-16T06:33:10;68.20;;;35.63;;
71148;SDS011;59072;42.144;25.200;2024-01-16T06:35:35;66.10;;;35.72;;
71148;SDS011;59072;42.144;25.200;2024-01-16T06:38:01;67.80;;;37.50;;
71148;SDS011;59072;42.144;25.200;2024-01-16T06:40:26;72.55;;;39.15;;
71148;SDS011;59072;42.144;25.200;2024-01-16T06:42:52;72.93;;;39.33;;
71148;SDS011;59072;42.144;25.200;2024-01-16T06:45:17;72.07;;;38.53;;
71148;SDS011;59072;42.144;25.200;2024-01-16T06:47:44;73.88;;;40.00;;
71148;SDS011;59072;42.144;25.200;2024-01-16T06:50:09;69.50;;;39.45;;
71148;SDS011;59072;42.144;25.200;2024-01-16T06:52:35;69.05;;;38.15;;
71148;SDS011;59072;42.144;25.200;2024-01-16T06:55:00;71.32;;;37.10;;
71148;SDS011;59072;42.144;25.200;2024-01-16T06:57:26;69.25;;;37.60;;
71148;SDS011;59072;42.144;25.200;2024-01-16T06:59:52;62.50;;;35.42;;
71148;SDS011;59072;42.144;25.200;2024-01-16T07:02:17;63.05;;;35.95;;
71148;SDS011;59072;42.144;25.200;2024-01-16T07:04:43;65.75;;;37.13;;
71148;SDS011;59072;42.144;25.200;2024-01-16T07:07:08;62.70;;;35.17;;
71148;SDS011;59072;42.144;25.200;2024-01-16T07:09:34;64.93;;;34.80;;
71148;SDS011;59072;42.144;25.200;2024-01-16T07:11:59;53.05;;;32.63;;
71148;SDS011;59072;42.144;25.200;2024-01-16T07:14:25;50.50;;;29.58;;
71148;SDS011;59072;42.144;25.200;2024-01-16T07:16:50;52.22;;;29.92;;
71148;SDS011;59072;42.144;25.200;2024-01-16T07:19:16;45.63;;;27.20;;
71148;SDS011;59072;42.144;25.200;2024-01-16T07:21:41;58.70;;;35.50;;
71148;SDS011;59072;42.144;25.200;2024-01-16T07:24:07;54.42;;;32.30;;
71148;SDS011;59072;42.144;25.200;2024-01-16T07:26:33;51.88;;;30.05;;
71148;SDS011;59072;42.144;25.200;2024-01-16T07:28:59;51.60;;;31.25;;
71148;SDS011;59072;42.144;25.200;2024-01-16T07:31:25;46.92;;;28.98;;
71148;SDS011;59072;42.144;25.200;2024-01-16T07:33:50;48.78;;;29.25;;
71148;SDS011;59072;42.144;25.200;2024-01-16T07:36:16;47.97;;;29.15;;
71148;SDS011;59072;42.144;25.200;2024-01-16T07:38:41;47.83;;;28.17;;
71148;SDS011;59072;42.144;25.200;2024-01-16T07:41:07;51.25;;;29.90;;
71148;SDS011;59072;42.144;25.200;2024-01-16T07:43:32;47.50;;;28.33;;
71148;SDS011;59072;42.144;25.200;2024-01-16T07:45:58;52.08;;;31.70;;
71148;SDS011;59072;42.144;25.200;2024-01-16T07:48:24;92.32;;;48.00;;
71148;SDS011;59072;42.144;25.200;2024-01-16T07:50:49;86.38;;;48.03;;
71148;SDS011;59072;42.144;25.200;2024-01-16T07:53:15;74.18;;;42.00;;
71148;SDS011;59072;42.144;25.200;2024-01-16T07:55:40;63.42;;;37.70;;
71148;SDS011;59072;42.144;25.200;2024-01-16T08:00:37;46.13;;;26.73;;
71148;SDS011;59072;42.144;25.200;2024-01-16T08:03:03;57.13;;;33.72;;
71148;SDS011;59072;42.144;25.200;2024-01-16T08:05:29;52.63;;;31.98;;
71148;SDS011;59072;42.144;25.200;2024-01-16T08:07:55;43.25;;;25.17;;
71148;SDS011;59072;42.144;25.200;2024-01-16T08:10:21;41.40;;;22.75;;
71148;SDS011;59072;42.144;25.200;2024-01-16T08:12:47;40.15;;;23.02;;
71148;SDS011;59072;42.144;25.200;2024-01-16T08:15:12;48.10;;;26.60;;
71148;SDS011;59072;42.144;25.200;2024-01-16T08:17:38;63.75;;;33.15;;
71148;SDS011;59072;42.144;25.200;2024-01-16T08:20:04;56.22;;;28.63;;
71148;SDS011;59072;42.144;25.200;2024-01-16T08:22:31;40.55;;;22.65;;
71148;SDS011;59072;42.144;25.200;2024-01-16T08:24:56;45.53;;;24.00;;
71148;SDS011;59072;42.144;25.200;2024-01-16T08:27:21;36.10;;;19.77;;
71148;SDS011;59072;42.144;25.200;2024-01-16T08:29:47;33.00;;;19.38;;
71148;SDS011;59072;42.144;25.200;2024-01-16T08:32:15;59.83;;;31.02;;
71148;SDS011;59072;42.144;25.200;2024-01-16T08:34:41;66.20;;;33.05;;
71148;SDS011;59072;42.144;25.200;2024-01-16T08:37:06;60.72;;;30.63;;
71148;SDS011;59072;42.144;25.200;2024-01-16T08:39:31;49.13;;;24.42;;
71148;SDS011;59072;42.144;25.200;2024-01-16T08:41:59;40.80;;;23.40;;
71148;SDS011;59072;42.144;25.200;2024-01-16T08:44:25;40.72;;;22.77;;
71148;SDS011;59072;42.144;25.200;2024-01-16T08:46:50;44.35;;;22.45;;
71148;SDS011;59072;42.144;25.200;2024-01-16T08:49:15;33.17;;;19.40;;
71148;SDS011;59072;42.144;25.200;2024-01-16T08:51:41;31.77;;;19.48;;
71148;SDS011;59072;42.144;25.200;2024-01-16T08:54:06;37.95;;;22.23;;
71148;SDS011;59072;42.144;25.200;2024-01-16T08:56:32;35.65;;;20.67;;
71148;SDS011;59072;42.144;25.200;2024-01-16T08:58:57;48.85;;;25.40;;
71148;SDS011;59072;42.144;25.200;2024-01-16T09:01:23;43.40;;;23.05;;
71148;SDS011;59072;42.144;25.200;2024-01-16T09:03:48;36.03;;;19.52;;
71148;SDS011;59072;42.144;25.200;2024-01-16T09:06:14;31.38;;;17.75;;
71148;SDS011;59072;42.144;25.200;2024-01-16T09:08:39;24.75;;;17.42;;
71148;SDS011;59072;42.144;25.200;2024-01-16T09:11:04;17.90;;;11.63;;
71148;SDS011;59072;42.144;25.200;2024-01-16T09:13:30;18.23;;;12.45;;
71148;SDS011;59072;42.144;25.200;2024-01-16T09:15:55;16.38;;;10.25;;
71148;SDS011;59072;42.144;25.200;2024-01-16T09:18:20;15.13;;;9.05;;
71148;SDS011;59072;42.144;25.200;2024-01-16T09:20:46;13.18;;;8.68;;
71148;SDS011;59072;42.144;25.200;2024-01-16T09:23:11;12.25;;;7.60;;
71148;SDS011;59072;42.144;25.200;2024-01-16T09:25:38;12.63;;;7.72;;
71148;SDS011;59072;42.144;25.200;2024-01-16T09:28:04;12.00;;;7.80;;
71148;SDS011;59072;42.144;25.200;2024-01-16T09:30:29;10.77;;;6.32;;
71148;SDS011;59072;42.144;25.200;2024-01-16T09:32:55;7.72;;;5.32;;
71148;SDS011;59072;42.144;25.200;2024-01-16T09:35:20;9.40;;;6.20;;
71148;SDS011;59072;42.144;25.200;2024-01-16T09:37:47;9.80;;;5.85;;
71148;SDS011;59072;42.144;25.200;2024-01-16T09:40:12;8.23;;;4.88;;
71148;SDS011;59072;42.144;25.200;2024-01-16T09:42:38;8.63;;;5.30;;
71148;SDS011;59072;42.144;25.200;2024-01-16T09:45:05;9.10;;;5.20;;
71148;SDS011;59072;42.144;25.200;2024-01-16T09:47:32;7.00;;;4.03;;
71148;SDS011;59072;42.144;25.200;2024-01-16T09:50:02;10.02;;;4.78;;
71148;SDS011;59072;42.144;25.200;2024-01-16T09:52:28;7.45;;;4.47;;
71148;SDS011;59072;42.144;25.200;2024-01-16T09:54:54;8.52;;;4.18;;
71148;SDS011;59072;42.144;25.200;2024-01-16T09:57:20;7.18;;;4.18;;
71148;SDS011;59072;42.144;25.200;2024-01-16T09:59:50;5.90;;;3.58;;
71148;SDS011;59072;42.144;25.200;2024-01-16T10:02:16;5.38;;;3.50;;
71148;SDS011;59072;42.144;25.200;2024-01-16T10:04:44;5.57;;;3.67;;
71148;SDS011;59072;42.144;25.200;2024-01-16T10:07:09;8.55;;;3.75;;
71148;SDS011;59072;42.144;25.200;2024-01-16T10:09:37;5.63;;;3.00;;
71148;SDS011;59072;42.144;25.200;2024-01-16T10:12:03;5.68;;;3.10;;
71148;SDS011;59072;42.144;25.200;2024-01-16T10:14:30;7.10;;;3.78;;
71148;SDS011;59072;42.144;25.200;2024-01-16T10:16:56;5.03;;;2.13;;
71148;SDS011;59072;42.144;25.200;2024-01-16T10:19:27;4.93;;;2.70;;
71148;SDS011;59072;42.144;25.200;2024-01-16T10:22:04;4.95;;;2.50;;
71148;SDS011;59072;42.144;25.200;2024-01-16T10:24:31;5.13;;;2.58;;
71148;SDS011;59072;42.144;25.200;2024-01-16T10:26:59;6.70;;;4.32;;
71148;SDS011;59072;42.144;25.200;2024-01-16T10:29:31;9.40;;;4.15;;
71148;SDS011;59072;42.144;25.200;2024-01-16T10:31:57;8.25;;;4.35;;
71148;SDS011;59072;42.144;25.200;2024-01-16T10:34:23;5.35;;;2.85;;
71148;SDS011;59072;42.144;25.200;2024-01-16T10:36:50;5.35;;;2.10;;
71148;SDS011;59072;42.144;25.200;2024-01-16T10:39:17;4.90;;;2.33;;
71148;SDS011;59072;42.144;25.200;2024-01-16T10:41:53;3.17;;;2.25;;
71148;SDS011;59072;42.144;25.200;2024-01-16T10:44:20;5.18;;;2.20;;
71148;SDS011;59072;42.144;25.200;2024-01-16T10:46:45;5.45;;;2.33;;
71148;SDS011;59072;42.144;25.200;2024-01-16T10:49:10;4.90;;;2.42;;
71148;SDS011;59072;42.144;25.200;2024-01-16T10:51:36;2.95;;;1.65;;
71148;SDS011;59072;42.144;25.200;2024-01-16T10:54:05;5.35;;;2.00;;
71148;SDS011;59072;42.144;25.200;2024-01-16T10:56:31;3.83;;;2.10;;
71148;SDS011;59072;42.144;25.200;2024-01-16T10:59:03;5.18;;;3.03;;
71148;SDS011;59072;42.144;25.200;2024-01-16T11:01:37;5.18;;;2.92;;
71148;SDS011;59072;42.144;25.200;2024-01-16T11:04:04;3.97;;;1.90;;
71148;SDS011;59072;42.144;25.200;2024-01-16T11:06:31;4.80;;;1.98;;
71148;SDS011;59072;42.144;25.200;2024-01-16T11:08:57;2.92;;;1.70;;
71148;SDS011;59072;42.144;25.200;2024-01-16T11:11:24;3.97;;;1.90;;
71148;SDS011;59072;42.144;25.200;2024-01-16T11:13:53;4.15;;;1.92;;
71148;SDS011;59072;42.144;25.200;2024-01-16T11:16:20;4.07;;;2.00;;
71148;SDS011;59072;42.144;25.200;2024-01-16T11:18:46;3.50;;;1.95;;
71148;SDS011;59072;42.144;25.200;2024-01-16T11:21:12;3.63;;;1.95;;
71148;SDS011;59072;42.144;25.200;2024-01-16T11:23:39;4.10;;;2.00;;
71148;SDS011;59072;42.144;25.200;2024-01-16T11:31:52;4.50;;;2.05;;
71148;SDS011;59072;42.144;25.200;2024-01-16T11:37:14;4.10;;;2.10;;
71148;SDS011;59072;42.144;25.200;2024-01-16T11:39:40;5.05;;;1.92;;
71148;SDS011;59072;42.144;25.200;2024-01-16T11:42:05;3.50;;;1.83;;
71148;SDS011;59072;42.144;25.200;2024-01-16T11:47:23;4.03;;;2.03;;
71148;SDS011;59072;42.144;25.200;2024-01-16T11:49:50;4.40;;;1.88;;
71148;SDS011;59072;42.144;25.200;2024-01-16T11:55:26;5.38;;;2.42;;
71148;SDS011;59072;42.144;25.200;2024-01-16T12:00:58;3.50;;;2.17;;
71148;SDS011;59072;42.144;25.200;2024-01-16T12:03:24;5.03;;;1.73;;
71148;SDS011;59072;42.144;25.200;2024-01-16T12:05:59;3.88;;;2.03;;
71148;SDS011;59072;42.144;25.200;2024-01-16T12:08:25;3.22;;;1.73;;
71148;SDS011;59072;42.144;25.200;2024-01-16T12:10:51;5.65;;;2.00;;
71148;SDS011;59072;42.144;25.200;2024-01-16T12:13:17;4.70;;;2.22;;
71148;SDS011;59072;42.144;25.200;2024-01-16T12:15:43;2.33;;;1.55;;
71148;SDS011;59072;42.144;25.200;2024-01-16T12:18:09;3.17;;;1.52;;
71148;SDS011;59072;42.144;25.200;2024-01-16T12:20:38;3.90;;;1.67;;
71148;SDS011;59072;42.144;25.200;2024-01-16T12:23:04;2.58;;;1.55;;
71148;SDS011;59072;42.144;25.200;2024-01-16T12:25:31;2.45;;;1.67;;
71148;SDS011;59072;42.144;25.200;2024-01-16T12:27:58;3.28;;;1.70;;
71148;SDS011;59072;42.144;25.200;2024-01-16T12:30:31;3.50;;;2.20;;
71148;SDS011;59072;42.144;25.200;2024-01-16T12:33:04;6.78;;;1.60;;
71148;SDS011;59072;42.144;25.200;2024-01-16T12:35:41;3.65;;;1.70;;
71148;SDS011;59072;42.144;25.200;2024-01-16T12:38:08;4.45;;;1.85;;
71148;SDS011;59072;42.144;25.200;2024-01-16T12:40:36;4.78;;;1.80;;
71148;SDS011;59072;42.144;25.200;2024-01-16T12:43:11;3.40;;;1.77;;
71148;SDS011;59072;42.144;25.200;2024-01-16T12:45:36;3.38;;;1.77;;
71148;SDS011;59072;42.144;25.200;2024-01-16T12:48:02;3.30;;;1.90;;
71148;SDS011;59072;42.144;25.200;2024-01-16T12:50:31;5.63;;;1.85;;
71148;SDS011;59072;42.144;25.200;2024-01-16T12:53:04;3.45;;;2.10;;
71148;SDS011;59072;42.144;25.200;2024-01-16T12:55:31;4.07;;;2.30;;
71148;SDS011;59072;42.144;25.200;2024-01-16T12:58:13;4.70;;;2.30;;
71148;SDS011;59072;42.144;25.200;2024-01-16T13:00:44;5.22;;;2.17;;
71148;SDS011;59072;42.144;25.200;2024-01-16T13:05:43;5.45;;;2.97;;
71148;SDS011;59072;42.144;25.200;2024-01-16T13:08:09;10.73;;;6.68;;
71148;SDS011;59072;42.144;25.200;2024-01-16T13:10:34;7.15;;;2.70;;
71148;SDS011;59072;42.144;25.200;2024-01-16T13:13:13;6.43;;;3.22;;
71148;SDS011;59072;42.144;25.200;2024-01-16T13:15:39;26.10;;;14.80;;
71148;SDS011;59072;42.144;25.200;2024-01-16T13:18:05;11.35;;;5.65;;
71148;SDS011;59072;42.144;25.200;2024-01-16T13:20:31;9.23;;;5.40;;
71148;SDS011;59072;42.144;25.200;2024-01-16T13:22:57;5.75;;;2.80;;
71148;SDS011;59072;42.144;25.200;2024-01-16T13:25:22;4.70;;;1.70;;
71148;SDS011;59072;42.144;25.200;2024-01-16T13:27:47;3.50;;;1.48;;
71148;SDS011;59072;42.144;25.200;2024-01-16T13:30:13;6.43;;;3.20;;
71148;SDS011;59072;42.144;25.200;2024-01-16T13:32:39;3.50;;;1.60;;
71148;SDS011;59072;42.144;25.200;2024-01-16T13:35:05;4.45;;;1.92;;
71148;SDS011;59072;42.144;25.200;2024-01-16T13:37:33;3.80;;;1.90;;
71148;SDS011;59072;42.144;25.200;2024-01-16T13:40:02;3.67;;;1.70;;
71148;SDS011;59072;42.144;25.200;2024-01-16T13:42:36;2.65;;;1.50;;
71148;SDS011;59072;42.144;25.200;2024-01-16T13:45:02;5.40;;;1.83;;
71148;SDS011;59072;42.144;25.200;2024-01-16T13:47:29;3.58;;;1.85;;
71148;SDS011;59072;42.144;25.200;2024-01-16T13:49:55;3.58;;;2.28;;
71148;SDS011;59072;42.144;25.200;2024-01-16T13:52:20;4.78;;;2.72;;
71148;SDS011;59072;42.144;25.200;2024-01-16T13:54:46;5.47;;;2.08;;
71148;SDS011;59072;42.144;25.200;2024-01-16T13:57:11;5.65;;;2.80;;
71148;SDS011;59072;42.144;25.200;2024-01-16T13:59:37;4.93;;;2.03;;
71148;SDS011;59072;42.144;25.200;2024-01-16T14:02:03;4.97;;;2.80;;
71148;SDS011;59072;42.144;25.200;2024-01-16T14:04:30;4.35;;;2.30;;
71148;SDS011;59072;42.144;25.200;2024-01-16T14:06:56;4.60;;;2.33;;
71148;SDS011;59072;42.144;25.200;2024-01-16T14:09:21;5.65;;;2.90;;
71148;SDS011;59072;42.144;25.200;2024-01-16T14:11:48;4.63;;;2.00;;
71148;SDS011;59072;42.144;25.200;2024-01-16T14:14:13;4.30;;;2.45;;
71148;SDS011;59072;42.144;25.200;2024-01-16T14:16:39;5.50;;;2.65;;
71148;SDS011;59072;42.144;25.200;2024-01-16T14:19:05;5.10;;;2.65;;
71148;SDS011;59072;42.144;25.200;2024-01-16T14:21:30;3.63;;;1.85;;
71148;SDS011;59072;42.144;25.200;2024-01-16T14:23:55;4.93;;;2.40;;
71148;SDS011;59072;42.144;25.200;2024-01-16T14:26:21;7.70;;;3.33;;
71148;SDS011;59072;42.144;25.200;2024-01-16T14:28:46;13.13;;;7.32;;
71148;SDS011;59072;42.144;25.200;2024-01-16T14:31:12;35.03;;;17.20;;
71148;SDS011;59072;42.144;25.200;2024-01-16T14:33:37;20.77;;;10.02;;
71148;SDS011;59072;42.144;25.200;2024-01-16T14:36:02;17.40;;;9.57;;